sensor_id;sensor_type;location;lat;lon;timestamp;P1;durP1;ratioP1;P2;durP2;ratioP2
76589;SDS011;65471;55.908;37.880;2024-02-21T00:00:48;36.97;;;17.27;;
76589;SDS011;65471;55.908;37.880;2024-02-21T00:03:15;32.08;;;17.45;;
76589;SDS011;65471;55.908;37.880;2024-02-21T00:05:42;35.20;;;17.00;;
76589;SDS011;65471;55.908;37.880;2024-02-21T00:08:09;36.67;;;17.63;;
76589;SDS011;65471;55.908;37.880;2024-02-21T00:10:36;39.08;;;17.92;;
76589;SDS011;65471;55.908;37.880;2024-02-21T00:13:03;45.50;;;17.83;;
76589;SDS011;65471;55.908;37.880;2024-02-21T00:15:30;30.30;;;16.63;;
76589;SDS011;65471;55.908;37.880;2024-02-21T00:17:57;39.30;;;17.58;;
76589;SDS011;65471;55.908;37.880;2024-02-21T00:20:25;36.03;;;17.35;;
76589;SDS011;65471;55.908;37.880;2024-02-21T00:22:52;36.83;;;17.90;;
76589;SDS011;65471;55.908;37.880;2024-02-21T00:25:19;31.70;;;17.23;;
76589;SDS011;65471;55.908;37.880;2024-02-21T00:27:47;35.60;;;16.73;;
76589;SDS011;65471;55.908;37.880;2024-02-21T00:30:14;36.42;;;16.27;;
76589;SDS011;65471;55.908;37.880;2024-02-21T00:32:41;34.15;;;16.35;;
76589;SDS011;65471;55.908;37.880;2024-02-21T00:35:08;33.90;;;16.55;;
76589;SDS011;65471;55.908;37.880;2024-02-21T00:37:35;42.83;;;16.83;;
76589;SDS011;65471;55.908;37.880;2024-02-21T00:40:02;38.63;;;16.88;;
76589;SDS011;65471;55.908;37.880;2024-02-21T00:42:29;41.80;;;17.52;;
76589;SDS011;65471;55.908;37.880;2024-02-21T00:44:57;37.45;;;16.90;;
76589;SDS011;65471;55.908;37.880;2024-02-21T00:47:23;36.10;;;16.60;;
76589;SDS011;65471;55.908;37.880;2024-02-21T00:49:51;35.60;;;16.50;;
76589;SDS011;65471;55.908;37.880;2024-02-21T00:52:18;33.42;;;16.20;;
76589;SDS011;65471;55.908;37.880;2024-02-21T00:54:45;37.55;;;16.27;;
76589;SDS011;65471;55.908;37.880;2024-02-21T00:57:19;31.98;;;15.88;;
76589;SDS011;65471;55.908;37.880;2024-02-21T00:59:47;30.57;;;16.13;;
76589;SDS011;65471;55.908;37.880;2024-02-21T01:02:14;32.00;;;16.80;;
76589;SDS011;65471;55.908;37.880;2024-02-21T01:04:41;33.58;;;15.90;;
76589;SDS011;65471;55.908;37.880;2024-02-21T01:07:08;38.78;;;16.60;;
76589;SDS011;65471;55.908;37.880;2024-02-21T01:09:35;40.33;;;16.55;;
76589;SDS011;65471;55.908;37.880;2024-02-21T01:12:02;34.95;;;17.45;;
76589;SDS011;65471;55.908;37.880;2024-02-21T01:14:30;44.50;;;17.25;;
76589;SDS011;65471;55.908;37.880;2024-02-21T01:16:57;34.58;;;16.95;;
76589;SDS011;65471;55.908;37.880;2024-02-21T01:19:24;37.65;;;17.55;;
76589;SDS011;65471;55.908;37.880;2024-02-21T01:21:51;32.70;;;17.17;;
76589;SDS011;65471;55.908;37.880;2024-02-21T01:24:19;37.45;;;17.30;;
76589;SDS011;65471;55.908;37.880;2024-02-21T01:26:46;40.67;;;16.92;;
76589;SDS011;65471;55.908;37.880;2024-02-21T01:29:13;34.25;;;16.98;;
76589;SDS011;65471;55.908;37.880;2024-02-21T01:31:40;33.17;;;16.90;;
76589;SDS011;65471;55.908;37.880;2024-02-21T01:34:07;34.00;;;17.00;;
76589;SDS011;65471;55.908;37.880;2024-02-21T01:36:35;35.97;;;17.80;;
76589;SDS011;65471;55.908;37.880;2024-02-21T01:39:02;34.60;;;16.75;;
76589;SDS011;65471;55.908;37.880;2024-02-21T01:41:32;36.85;;;16.55;;
76589;SDS011;65471;55.908;37.880;2024-02-21T01:43:59;37.13;;;17.05;;
76589;SDS011;65471;55.908;37.880;2024-02-21T01:46:26;39.22;;;17.48;;
76589;SDS011;65471;55.908;37.880;2024-02-21T01:51:23;31.50;;;15.20;;
76589;SDS011;65471;55.908;37.880;2024-02-21T01:53:51;28.25;;;16.23;;
76589;SDS011;65471;55.908;37.880;2024-02-21T01:56:20;39.55;;;16.77;;
76589;SDS011;65471;55.908;37.880;2024-02-21T01:58:47;35.55;;;17.55;;
76589;SDS011;65471;55.908;37.880;2024-02-21T02:01:15;38.08;;;16.50;;
76589;SDS011;65471;55.908;37.880;2024-02-21T02:03:47;35.55;;;16.95;;
76589;SDS011;65471;55.908;37.880;2024-02-21T02:06:16;37.80;;;17.33;;
76589;SDS011;65471;55.908;37.880;2024-02-21T02:08:43;31.08;;;17.17;;
76589;SDS011;65471;55.908;37.880;2024-02-21T02:11:13;37.15;;;17.90;;
76589;SDS011;65471;55.908;37.880;2024-02-21T02:13:41;34.13;;;16.10;;
76589;SDS011;65471;55.908;37.880;2024-02-21T02:16:08;31.77;;;16.48;;
76589;SDS011;65471;55.908;37.880;2024-02-21T02:18:35;31.50;;;16.75;;
76589;SDS011;65471;55.908;37.880;2024-02-21T02:21:04;37.25;;;17.58;;
76589;SDS011;65471;55.908;37.880;2024-02-21T02:23:35;32.92;;;16.38;;
76589;SDS011;65471;55.908;37.880;2024-02-21T02:26:03;46.58;;;17.38;;
76589;SDS011;65471;55.908;37.880;2024-02-21T02:28:30;34.75;;;16.25;;
76589;SDS011;65471;55.908;37.880;2024-02-21T02:30:57;30.23;;;15.05;;
76589;SDS011;65471;55.908;37.880;2024-02-21T02:33:24;36.25;;;16.90;;
76589;SDS011;65471;55.908;37.880;2024-02-21T02:35:51;34.50;;;16.00;;
76589;SDS011;65471;55.908;37.880;2024-02-21T02:38:18;33.95;;;16.38;;
76589;SDS011;65471;55.908;37.880;2024-02-21T02:40:45;27.63;;;15.73;;
76589;SDS011;65471;55.908;37.880;2024-02-21T02:43:12;29.30;;;16.10;;
76589;SDS011;65471;55.908;37.880;2024-02-21T02:45:39;33.10;;;15.73;;
76589;SDS011;65471;55.908;37.880;2024-02-21T02:48:06;28.42;;;15.40;;
76589;SDS011;65471;55.908;37.880;2024-02-21T02:50:34;30.77;;;15.93;;
76589;SDS011;65471;55.908;37.880;2024-02-21T02:53:01;30.80;;;14.88;;
76589;SDS011;65471;55.908;37.880;2024-02-21T02:55:28;37.75;;;15.60;;
76589;SDS011;65471;55.908;37.880;2024-02-21T02:57:55;28.02;;;15.55;;
76589;SDS011;65471;55.908;37.880;2024-02-21T03:00:23;29.95;;;15.82;;
76589;SDS011;65471;55.908;37.880;2024-02-21T03:02:50;32.58;;;17.17;;
76589;SDS011;65471;55.908;37.880;2024-02-21T03:05:18;27.00;;;15.43;;
76589;SDS011;65471;55.908;37.880;2024-02-21T03:07:47;31.10;;;16.08;;
76589;SDS011;65471;55.908;37.880;2024-02-21T03:10:16;36.15;;;15.93;;
76589;SDS011;65471;55.908;37.880;2024-02-21T03:12:44;29.50;;;15.15;;
76589;SDS011;65471;55.908;37.880;2024-02-21T03:15:13;34.77;;;16.00;;
76589;SDS011;65471;55.908;37.880;2024-02-21T03:17:40;38.25;;;15.40;;
76589;SDS011;65471;55.908;37.880;2024-02-21T03:20:08;41.43;;;18.43;;
76589;SDS011;65471;55.908;37.880;2024-02-21T03:22:39;36.38;;;15.90;;
76589;SDS011;65471;55.908;37.880;2024-02-21T03:25:10;30.05;;;15.90;;
76589;SDS011;65471;55.908;37.880;2024-02-21T03:27:39;29.75;;;15.13;;
76589;SDS011;65471;55.908;37.880;2024-02-21T03:30:07;30.08;;;15.35;;
76589;SDS011;65471;55.908;37.880;2024-02-21T03:32:34;27.08;;;15.10;;
76589;SDS011;65471;55.908;37.880;2024-02-21T03:35:01;31.40;;;14.52;;
76589;SDS011;65471;55.908;37.880;2024-02-21T03:37:30;23.70;;;13.52;;
76589;SDS011;65471;55.908;37.880;2024-02-21T03:39:57;27.48;;;14.00;;
76589;SDS011;65471;55.908;37.880;2024-02-21T03:42:24;31.38;;;14.65;;
76589;SDS011;65471;55.908;37.880;2024-02-21T03:44:51;25.77;;;14.20;;
76589;SDS011;65471;55.908;37.880;2024-02-21T03:47:18;35.70;;;14.70;;
76589;SDS011;65471;55.908;37.880;2024-02-21T03:49:45;31.83;;;14.95;;
76589;SDS011;65471;55.908;37.880;2024-02-21T03:52:12;25.42;;;13.85;;
76589;SDS011;65471;55.908;37.880;2024-02-21T03:54:39;26.55;;;14.68;;
76589;SDS011;65471;55.908;37.880;2024-02-21T03:57:06;38.75;;;15.35;;
76589;SDS011;65471;55.908;37.880;2024-02-21T03:59:34;27.17;;;14.45;;
76589;SDS011;65471;55.908;37.880;2024-02-21T04:02:01;28.08;;;14.85;;
76589;SDS011;65471;55.908;37.880;2024-02-21T04:04:30;26.10;;;13.38;;
76589;SDS011;65471;55.908;37.880;2024-02-21T04:06:57;28.65;;;14.50;;
76589;SDS011;65471;55.908;37.880;2024-02-21T04:09:24;23.80;;;13.70;;
76589;SDS011;65471;55.908;37.880;2024-02-21T04:11:51;30.27;;;13.93;;
76589;SDS011;65471;55.908;37.880;2024-02-21T04:14:18;22.10;;;12.98;;
76589;SDS011;65471;55.908;37.880;2024-02-21T04:16:45;26.90;;;13.82;;
76589;SDS011;65471;55.908;37.880;2024-02-21T04:19:12;29.40;;;13.60;;
76589;SDS011;65471;55.908;37.880;2024-02-21T04:21:39;20.98;;;12.65;;
76589;SDS011;65471;55.908;37.880;2024-02-21T04:24:06;24.52;;;13.43;;
76589;SDS011;65471;55.908;37.880;2024-02-21T04:26:33;30.33;;;14.00;;
76589;SDS011;65471;55.908;37.880;2024-02-21T04:29:01;24.63;;;13.57;;
76589;SDS011;65471;55.908;37.880;2024-02-21T04:31:28;28.15;;;14.18;;
76589;SDS011;65471;55.908;37.880;2024-02-21T04:33:56;23.30;;;12.40;;
76589;SDS011;65471;55.908;37.880;2024-02-21T04:36:23;24.58;;;13.32;;
76589;SDS011;65471;55.908;37.880;2024-02-21T04:38:50;22.15;;;13.52;;
76589;SDS011;65471;55.908;37.880;2024-02-21T04:41:17;23.17;;;13.68;;
76589;SDS011;65471;55.908;37.880;2024-02-21T04:43:47;21.00;;;12.75;;
76589;SDS011;65471;55.908;37.880;2024-02-21T04:46:14;23.35;;;13.40;;
76589;SDS011;65471;55.908;37.880;2024-02-21T04:48:42;34.17;;;13.80;;
76589;SDS011;65471;55.908;37.880;2024-02-21T04:51:11;25.23;;;14.25;;
76589;SDS011;65471;55.908;37.880;2024-02-21T04:53:40;27.15;;;14.57;;
76589;SDS011;65471;55.908;37.880;2024-02-21T04:56:07;23.90;;;14.35;;
76589;SDS011;65471;55.908;37.880;2024-02-21T04:58:37;29.70;;;14.05;;
76589;SDS011;65471;55.908;37.880;2024-02-21T05:01:05;22.58;;;13.70;;
76589;SDS011;65471;55.908;37.880;2024-02-21T05:03:32;29.48;;;14.82;;
76589;SDS011;65471;55.908;37.880;2024-02-21T05:05:59;26.17;;;14.13;;
76589;SDS011;65471;55.908;37.880;2024-02-21T05:08:27;30.90;;;16.23;;
76589;SDS011;65471;55.908;37.880;2024-02-21T05:10:54;26.25;;;14.13;;
76589;SDS011;65471;55.908;37.880;2024-02-21T05:13:21;24.35;;;13.82;;
76589;SDS011;65471;55.908;37.880;2024-02-21T05:15:48;31.83;;;16.23;;
76589;SDS011;65471;55.908;37.880;2024-02-21T05:18:15;24.75;;;14.52;;
76589;SDS011;65471;55.908;37.880;2024-02-21T05:20:43;26.48;;;15.15;;
76589;SDS011;65471;55.908;37.880;2024-02-21T05:23:10;31.85;;;16.23;;
76589;SDS011;65471;55.908;37.880;2024-02-21T05:25:37;30.95;;;15.15;;
76589;SDS011;65471;55.908;37.880;2024-02-21T05:28:04;28.80;;;15.82;;
76589;SDS011;65471;55.908;37.880;2024-02-21T05:30:33;30.67;;;15.07;;
76589;SDS011;65471;55.908;37.880;2024-02-21T05:33:09;28.50;;;14.95;;
76589;SDS011;65471;55.908;37.880;2024-02-21T05:35:36;29.65;;;15.55;;
76589;SDS011;65471;55.908;37.880;2024-02-21T05:38:03;28.80;;;15.90;;
76589;SDS011;65471;55.908;37.880;2024-02-21T05:40:38;31.95;;;15.48;;
76589;SDS011;65471;55.908;37.880;2024-02-21T05:43:06;30.13;;;16.00;;
76589;SDS011;65471;55.908;37.880;2024-02-21T05:45:34;24.92;;;14.85;;
76589;SDS011;65471;55.908;37.880;2024-02-21T05:48:01;36.08;;;15.57;;
76589;SDS011;65471;55.908;37.880;2024-02-21T05:50:29;30.02;;;14.98;;
76589;SDS011;65471;55.908;37.880;2024-02-21T05:52:57;22.70;;;14.25;;
76589;SDS011;65471;55.908;37.880;2024-02-21T05:55:24;38.10;;;16.48;;
76589;SDS011;65471;55.908;37.880;2024-02-21T05:57:53;24.58;;;15.25;;
76589;SDS011;65471;55.908;37.880;2024-02-21T06:00:20;32.88;;;15.63;;
76589;SDS011;65471;55.908;37.880;2024-02-21T06:02:47;22.02;;;14.07;;
76589;SDS011;65471;55.908;37.880;2024-02-21T06:05:14;24.70;;;15.15;;
76589;SDS011;65471;55.908;37.880;2024-02-21T06:07:41;28.27;;;14.38;;
76589;SDS011;65471;55.908;37.880;2024-02-21T06:10:08;23.38;;;14.02;;
76589;SDS011;65471;55.908;37.880;2024-02-21T06:12:35;24.60;;;14.88;;
76589;SDS011;65471;55.908;37.880;2024-02-21T06:15:03;26.15;;;14.55;;
76589;SDS011;65471;55.908;37.880;2024-02-21T06:17:31;25.23;;;15.00;;
76589;SDS011;65471;55.908;37.880;2024-02-21T06:19:58;20.40;;;13.07;;
76589;SDS011;65471;55.908;37.880;2024-02-21T06:22:25;25.35;;;14.02;;
76589;SDS011;65471;55.908;37.880;2024-02-21T06:24:52;35.58;;;14.45;;
76589;SDS011;65471;55.908;37.880;2024-02-21T06:27:21;24.08;;;14.35;;
76589;SDS011;65471;55.908;37.880;2024-02-21T06:29:48;28.02;;;14.70;;
76589;SDS011;65471;55.908;37.880;2024-02-21T06:32:15;23.33;;;14.55;;
76589;SDS011;65471;55.908;37.880;2024-02-21T06:34:42;28.08;;;15.27;;
76589;SDS011;65471;55.908;37.880;2024-02-21T06:37:09;26.33;;;13.98;;
76589;SDS011;65471;55.908;37.880;2024-02-21T06:39:37;28.58;;;14.30;;
76589;SDS011;65471;55.908;37.880;2024-02-21T06:42:04;23.27;;;14.18;;
76589;SDS011;65471;55.908;37.880;2024-02-21T06:44:31;23.35;;;14.15;;
76589;SDS011;65471;55.908;37.880;2024-02-21T06:47:03;27.98;;;13.88;;
76589;SDS011;65471;55.908;37.880;2024-02-21T06:49:30;31.77;;;15.20;;
76589;SDS011;65471;55.908;37.880;2024-02-21T06:51:57;34.47;;;15.20;;
76589;SDS011;65471;55.908;37.880;2024-02-21T06:54:24;14.95;;;11.75;;
76589;SDS011;65471;55.908;37.880;2024-02-21T06:56:51;20.98;;;13.15;;
76589;SDS011;65471;55.908;37.880;2024-02-21T06:59:18;31.85;;;14.00;;
76589;SDS011;65471;55.908;37.880;2024-02-21T07:01:46;21.67;;;13.52;;
76589;SDS011;65471;55.908;37.880;2024-02-21T07:04:15;26.58;;;14.15;;
76589;SDS011;65471;55.908;37.880;2024-02-21T07:06:42;26.10;;;13.50;;
76589;SDS011;65471;55.908;37.880;2024-02-21T07:09:10;25.92;;;14.55;;
76589;SDS011;65471;55.908;37.880;2024-02-21T07:11:37;27.35;;;15.18;;
76589;SDS011;65471;55.908;37.880;2024-02-21T07:14:04;29.45;;;13.40;;
76589;SDS011;65471;55.908;37.880;2024-02-21T07:16:31;26.90;;;14.98;;
76589;SDS011;65471;55.908;37.880;2024-02-21T07:19:00;25.52;;;15.43;;
76589;SDS011;65471;55.908;37.880;2024-02-21T07:21:27;23.90;;;13.07;;
76589;SDS011;65471;55.908;37.880;2024-02-21T07:23:54;28.33;;;13.77;;
76589;SDS011;65471;55.908;37.880;2024-02-21T07:26:21;27.58;;;14.70;;
76589;SDS011;65471;55.908;37.880;2024-02-21T07:28:49;24.42;;;13.48;;
76589;SDS011;65471;55.908;37.880;2024-02-21T07:31:16;29.05;;;14.77;;
76589;SDS011;65471;55.908;37.880;2024-02-21T07:33:44;25.95;;;14.75;;
76589;SDS011;65471;55.908;37.880;2024-02-21T07:36:11;23.23;;;12.77;;
76589;SDS011;65471;55.908;37.880;2024-02-21T07:38:39;28.55;;;14.63;;
76589;SDS011;65471;55.908;37.880;2024-02-21T07:41:06;74.13;;;33.28;;
76589;SDS011;65471;55.908;37.880;2024-02-21T07:43:33;40.13;;;21.10;;
76589;SDS011;65471;55.908;37.880;2024-02-21T07:46:00;28.70;;;15.27;;
76589;SDS011;65471;55.908;37.880;2024-02-21T07:48:27;28.20;;;14.50;;
76589;SDS011;65471;55.908;37.880;2024-02-21T07:50:57;25.75;;;13.90;;
76589;SDS011;65471;55.908;37.880;2024-02-21T07:53:24;18.15;;;11.85;;
76589;SDS011;65471;55.908;37.880;2024-02-21T07:55:51;23.23;;;12.85;;
76589;SDS011;65471;55.908;37.880;2024-02-21T07:58:18;38.47;;;18.08;;
76589;SDS011;65471;55.908;37.880;2024-02-21T08:00:45;35.55;;;14.60;;
76589;SDS011;65471;55.908;37.880;2024-02-21T08:03:12;36.08;;;21.85;;
76589;SDS011;65471;55.908;37.880;2024-02-21T08:05:39;31.67;;;14.20;;
76589;SDS011;65471;55.908;37.880;2024-02-21T08:08:07;23.73;;;13.60;;
76589;SDS011;65471;55.908;37.880;2024-02-21T08:10:35;25.15;;;13.13;;
76589;SDS011;65471;55.908;37.880;2024-02-21T08:13:02;25.13;;;14.15;;
76589;SDS011;65471;55.908;37.880;2024-02-21T08:15:29;23.80;;;13.43;;
76589;SDS011;65471;55.908;37.880;2024-02-21T08:17:56;18.92;;;12.95;;
76589;SDS011;65471;55.908;37.880;2024-02-21T08:20:27;26.70;;;14.38;;
76589;SDS011;65471;55.908;37.880;2024-02-21T08:22:54;24.20;;;12.50;;
76589;SDS011;65471;55.908;37.880;2024-02-21T08:25:22;22.20;;;12.43;;
76589;SDS011;65471;55.908;37.880;2024-02-21T08:27:49;27.60;;;15.02;;
76589;SDS011;65471;55.908;37.880;2024-02-21T08:32:44;27.10;;;13.63;;
76589;SDS011;65471;55.908;37.880;2024-02-21T08:35:11;22.33;;;12.98;;
76589;SDS011;65471;55.908;37.880;2024-02-21T08:37:39;19.80;;;12.68;;
76589;SDS011;65471;55.908;37.880;2024-02-21T08:40:06;23.58;;;14.25;;
76589;SDS011;65471;55.908;37.880;2024-02-21T08:42:36;19.23;;;12.23;;
76589;SDS011;65471;55.908;37.880;2024-02-21T08:45:05;27.92;;;12.50;;
76589;SDS011;65471;55.908;37.880;2024-02-21T08:47:32;25.15;;;13.43;;
76589;SDS011;65471;55.908;37.880;2024-02-21T08:49:59;20.80;;;13.18;;
76589;SDS011;65471;55.908;37.880;2024-02-21T08:52:40;15.95;;;10.10;;
76589;SDS011;65471;55.908;37.880;2024-02-21T08:55:08;25.08;;;13.23;;
76589;SDS011;65471;55.908;37.880;2024-02-21T08:57:35;23.38;;;13.25;;
76589;SDS011;65471;55.908;37.880;2024-02-21T09:00:04;25.50;;;12.70;;
76589;SDS011;65471;55.908;37.880;2024-02-21T09:02:39;30.00;;;14.15;;
76589;SDS011;65471;55.908;37.880;2024-02-21T09:05:07;25.23;;;13.45;;
76589;SDS011;65471;55.908;37.880;2024-02-21T09:07:35;22.13;;;13.57;;
76589;SDS011;65471;55.908;37.880;2024-02-21T09:10:02;23.65;;;13.18;;
76589;SDS011;65471;55.908;37.880;2024-02-21T09:12:29;26.42;;;13.55;;
76589;SDS011;65471;55.908;37.880;2024-02-21T09:14:57;24.63;;;13.05;;
76589;SDS011;65471;55.908;37.880;2024-02-21T09:17:23;16.63;;;11.60;;
76589;SDS011;65471;55.908;37.880;2024-02-21T09:19:51;18.67;;;13.03;;
76589;SDS011;65471;55.908;37.880;2024-02-21T09:22:19;21.83;;;13.57;;
76589;SDS011;65471;55.908;37.880;2024-02-21T09:24:46;21.92;;;11.13;;
76589;SDS011;65471;55.908;37.880;2024-02-21T09:27:14;31.55;;;13.13;;
76589;SDS011;65471;55.908;37.880;2024-02-21T09:29:41;18.00;;;12.43;;
76589;SDS011;65471;55.908;37.880;2024-02-21T09:32:08;22.73;;;12.82;;
76589;SDS011;65471;55.908;37.880;2024-02-21T09:34:35;22.08;;;13.70;;
76589;SDS011;65471;55.908;37.880;2024-02-21T09:37:02;27.08;;;15.10;;
76589;SDS011;65471;55.908;37.880;2024-02-21T09:39:29;22.98;;;13.07;;
76589;SDS011;65471;55.908;37.880;2024-02-21T09:42:02;21.90;;;13.40;;
76589;SDS011;65471;55.908;37.880;2024-02-21T09:44:34;21.40;;;13.23;;
76589;SDS011;65471;55.908;37.880;2024-02-21T09:47:09;19.67;;;12.43;;
76589;SDS011;65471;55.908;37.880;2024-02-21T09:49:38;20.83;;;11.52;;
76589;SDS011;65471;55.908;37.880;2024-02-21T09:52:07;18.08;;;12.13;;
76589;SDS011;65471;55.908;37.880;2024-02-21T09:54:38;18.05;;;11.07;;
76589;SDS011;65471;55.908;37.880;2024-02-21T09:57:08;17.90;;;13.20;;
76589;SDS011;65471;55.908;37.880;2024-02-21T09:59:35;19.67;;;12.18;;
76589;SDS011;65471;55.908;37.880;2024-02-21T10:02:02;23.48;;;13.52;;
76589;SDS011;65471;55.908;37.880;2024-02-21T10:04:30;20.83;;;13.05;;
76589;SDS011;65471;55.908;37.880;2024-02-21T10:06:59;15.35;;;12.00;;
76589;SDS011;65471;55.908;37.880;2024-02-21T10:09:26;18.52;;;12.65;;
76589;SDS011;65471;55.908;37.880;2024-02-21T10:11:56;15.35;;;11.30;;
76589;SDS011;65471;55.908;37.880;2024-02-21T10:14:34;19.73;;;11.10;;
76589;SDS011;65471;55.908;37.880;2024-02-21T10:17:01;19.15;;;12.57;;
76589;SDS011;65471;55.908;37.880;2024-02-21T10:19:29;20.70;;;11.88;;
76589;SDS011;65471;55.908;37.880;2024-02-21T10:24:30;23.65;;;12.27;;
76589;SDS011;65471;55.908;37.880;2024-02-21T10:27:02;18.63;;;10.73;;
76589;SDS011;65471;55.908;37.880;2024-02-21T10:29:31;17.45;;;12.23;;
76589;SDS011;65471;55.908;37.880;2024-02-21T10:32:04;15.85;;;11.82;;
76589;SDS011;65471;55.908;37.880;2024-02-21T10:34:35;18.90;;;11.55;;
76589;SDS011;65471;55.908;37.880;2024-02-21T10:37:03;15.10;;;10.70;;
76589;SDS011;65471;55.908;37.880;2024-02-21T10:39:32;16.05;;;11.27;;
76589;SDS011;65471;55.908;37.880;2024-02-21T10:42:04;22.10;;;11.40;;
76589;SDS011;65471;55.908;37.880;2024-02-21T10:44:32;17.73;;;11.02;;
76589;SDS011;65471;55.908;37.880;2024-02-21T10:47:08;16.73;;;11.05;;
76589;SDS011;65471;55.908;37.880;2024-02-21T10:49:40;16.65;;;11.82;;
76589;SDS011;65471;55.908;37.880;2024-02-21T10:55:04;13.75;;;10.68;;
76589;SDS011;65471;55.908;37.880;2024-02-21T10:57:43;20.50;;;10.88;;
76589;SDS011;65471;55.908;37.880;2024-02-21T11:00:11;16.38;;;10.38;;
76589;SDS011;65471;55.908;37.880;2024-02-21T11:02:41;14.48;;;10.63;;
76589;SDS011;65471;55.908;37.880;2024-02-21T11:05:09;17.02;;;10.55;;
76589;SDS011;65471;55.908;37.880;2024-02-21T11:07:37;15.15;;;10.93;;
76589;SDS011;65471;55.908;37.880;2024-02-21T11:10:04;18.47;;;10.83;;
76589;SDS011;65471;55.908;37.880;2024-02-21T11:12:34;11.93;;;9.52;;
76589;SDS011;65471;55.908;37.880;2024-02-21T11:15:07;12.27;;;10.38;;
76589;SDS011;65471;55.908;37.880;2024-02-21T11:17:34;16.15;;;10.63;;
76589;SDS011;65471;55.908;37.880;2024-02-21T11:20:15;16.52;;;10.82;;
76589;SDS011;65471;55.908;37.880;2024-02-21T11:22:43;19.13;;;11.05;;
76589;SDS011;65471;55.908;37.880;2024-02-21T11:25:10;15.10;;;9.43;;
76589;SDS011;65471;55.908;37.880;2024-02-21T11:27:38;15.27;;;10.07;;
76589;SDS011;65471;55.908;37.880;2024-02-21T11:30:05;15.65;;;11.00;;
76589;SDS011;65471;55.908;37.880;2024-02-21T11:32:32;17.45;;;10.10;;
76589;SDS011;65471;55.908;37.880;2024-02-21T11:35:00;12.60;;;9.93;;
76589;SDS011;65471;55.908;37.880;2024-02-21T11:37:35;16.65;;;10.32;;
76589;SDS011;65471;55.908;37.880;2024-02-21T11:40:07;17.65;;;11.07;;
76589;SDS011;65471;55.908;37.880;2024-02-21T11:42:38;16.48;;;11.25;;
76589;SDS011;65471;55.908;37.880;2024-02-21T11:45:06;17.95;;;9.60;;
76589;SDS011;65471;55.908;37.880;2024-02-21T11:47:36;17.88;;;10.50;;
76589;SDS011;65471;55.908;37.880;2024-02-21T11:50:09;17.95;;;11.68;;
76589;SDS011;65471;55.908;37.880;2024-02-21T11:52:38;14.35;;;9.73;;
76589;SDS011;65471;55.908;37.880;2024-02-21T11:55:06;17.40;;;10.43;;
76589;SDS011;65471;55.908;37.880;2024-02-21T11:57:39;10.27;;;9.27;;
76589;SDS011;65471;55.908;37.880;2024-02-21T12:00:12;18.08;;;9.52;;
76589;SDS011;65471;55.908;37.880;2024-02-21T12:02:43;12.60;;;9.40;;
76589;SDS011;65471;55.908;37.880;2024-02-21T12:05:13;14.40;;;10.10;;
76589;SDS011;65471;55.908;37.880;2024-02-21T12:07:40;72.63;;;33.28;;
76589;SDS011;65471;55.908;37.880;2024-02-21T12:10:08;37.60;;;16.83;;
76589;SDS011;65471;55.908;37.880;2024-02-21T12:12:39;18.00;;;11.27;;
76589;SDS011;65471;55.908;37.880;2024-02-21T12:15:07;17.33;;;12.50;;
76589;SDS011;65471;55.908;37.880;2024-02-21T12:17:35;24.63;;;13.88;;
76589;SDS011;65471;55.908;37.880;2024-02-21T12:20:03;35.45;;;16.05;;
76589;SDS011;65471;55.908;37.880;2024-02-21T12:22:32;23.00;;;12.63;;
76589;SDS011;65471;55.908;37.880;2024-02-21T12:25:00;27.40;;;13.02;;
76589;SDS011;65471;55.908;37.880;2024-02-21T12:27:30;16.00;;;9.85;;
76589;SDS011;65471;55.908;37.880;2024-02-21T12:29:57;23.10;;;10.20;;
76589;SDS011;65471;55.908;37.880;2024-02-21T12:32:24;20.75;;;11.25;;
76589;SDS011;65471;55.908;37.880;2024-02-21T12:34:51;22.02;;;10.95;;
76589;SDS011;65471;55.908;37.880;2024-02-21T12:39:48;16.17;;;8.93;;
76589;SDS011;65471;55.908;37.880;2024-02-21T12:42:15;16.98;;;10.07;;
76589;SDS011;65471;55.908;37.880;2024-02-21T12:44:44;15.90;;;9.85;;
76589;SDS011;65471;55.908;37.880;2024-02-21T12:47:11;20.40;;;10.45;;
76589;SDS011;65471;55.908;37.880;2024-02-21T12:49:38;17.02;;;10.40;;
76589;SDS011;65471;55.908;37.880;2024-02-21T12:52:11;14.63;;;10.35;;
76589;SDS011;65471;55.908;37.880;2024-02-21T12:54:40;15.70;;;9.95;;
76589;SDS011;65471;55.908;37.880;2024-02-21T12:57:07;16.95;;;9.70;;
76589;SDS011;65471;55.908;37.880;2024-02-21T12:59:34;15.30;;;9.82;;
76589;SDS011;65471;55.908;37.880;2024-02-21T13:02:01;21.92;;;9.95;;
76589;SDS011;65471;55.908;37.880;2024-02-21T13:04:29;14.13;;;8.82;;
76589;SDS011;65471;55.908;37.880;2024-02-21T13:06:56;12.77;;;9.48;;
76589;SDS011;65471;55.908;37.880;2024-02-21T13:09:23;15.43;;;10.25;;
76589;SDS011;65471;55.908;37.880;2024-02-21T13:11:49;18.40;;;9.82;;
76589;SDS011;65471;55.908;37.880;2024-02-21T13:14:18;16.75;;;10.75;;
76589;SDS011;65471;55.908;37.880;2024-02-21T13:16:45;12.77;;;8.95;;
76589;SDS011;65471;55.908;37.880;2024-02-21T13:19:12;31.38;;;10.02;;
76589;SDS011;65471;55.908;37.880;2024-02-21T13:21:44;14.52;;;9.70;;
76589;SDS011;65471;55.908;37.880;2024-02-21T13:24:11;13.48;;;9.23;;
76589;SDS011;65471;55.908;37.880;2024-02-21T13:26:38;8.95;;;7.55;;
76589;SDS011;65471;55.908;37.880;2024-02-21T13:29:05;19.55;;;8.68;;
76589;SDS011;65471;55.908;37.880;2024-02-21T13:31:32;21.17;;;9.52;;
76589;SDS011;65471;55.908;37.880;2024-02-21T13:33:59;11.40;;;9.10;;
76589;SDS011;65471;55.908;37.880;2024-02-21T13:36:27;14.60;;;9.32;;
76589;SDS011;65471;55.908;37.880;2024-02-21T13:38:53;13.98;;;9.50;;
76589;SDS011;65471;55.908;37.880;2024-02-21T13:41:20;16.42;;;9.15;;
76589;SDS011;65471;55.908;37.880;2024-02-21T13:46:16;16.50;;;9.63;;
76589;SDS011;65471;55.908;37.880;2024-02-21T13:48:43;19.55;;;9.60;;
76589;SDS011;65471;55.908;37.880;2024-02-21T13:51:10;17.25;;;9.02;;
76589;SDS011;65471;55.908;37.880;2024-02-21T13:53:38;14.90;;;9.30;;
76589;SDS011;65471;55.908;37.880;2024-02-21T13:56:05;13.70;;;8.82;;
76589;SDS011;65471;55.908;37.880;2024-02-21T13:58:33;16.92;;;8.70;;
76589;SDS011;65471;55.908;37.880;2024-02-21T14:01:00;13.65;;;8.23;;
76589;SDS011;65471;55.908;37.880;2024-02-21T14:03:27;10.73;;;8.00;;
76589;SDS011;65471;55.908;37.880;2024-02-21T14:05:54;19.10;;;9.32;;
76589;SDS011;65471;55.908;37.880;2024-02-21T14:08:21;13.43;;;9.35;;
76589;SDS011;65471;55.908;37.880;2024-02-21T14:10:51;15.27;;;8.70;;
76589;SDS011;65471;55.908;37.880;2024-02-21T14:13:18;13.02;;;8.73;;
76589;SDS011;65471;55.908;37.880;2024-02-21T14:15:45;13.57;;;8.85;;
76589;SDS011;65471;55.908;37.880;2024-02-21T14:18:13;13.10;;;8.77;;
76589;SDS011;65471;55.908;37.880;2024-02-21T14:20:42;19.27;;;8.38;;
76589;SDS011;65471;55.908;37.880;2024-02-21T14:23:09;19.30;;;10.07;;
76589;SDS011;65471;55.908;37.880;2024-02-21T14:25:37;12.60;;;8.80;;
76589;SDS011;65471;55.908;37.880;2024-02-21T14:30:32;12.75;;;8.90;;
76589;SDS011;65471;55.908;37.880;2024-02-21T14:32:59;15.13;;;8.70;;